Flight Track Log - Related Links

Times and Time Zones

All times are in EDT time to prevent confusion due to time zone crossing. See the SKW5631 flight status page for this flight to view local times or setup timezone preferences in your user account.

Time Position Orientation Groundspeed Altitude Reporting Facility
EDT Latitude Longitude Course Direction KTS MPH feet Rate Location/Type
Thu 10:07:59 PM 37.6333 -122.3667 122° Southeast 161 185 800  Level Northern Cal TRACON
Thu 10:09:35 PM 37.6969 -122.4067 334° Northwest 214 246 3,500 1,861 Climbing Oakland Center
Thu 10:10:37 PM 37.6406 -122.4511 212° Southwest 267 307 5,700 2,732 Climbing Oakland Center
Thu 10:11:38 PM 37.5444 -122.4647 186° South 287 330 9,100 2,754 Climbing Oakland Center
Thu 10:12:00 PM 37.1539 -121.9607 133° Southeast  Level FlightAware Approximate
Thu 10:12:39 PM 37.4639 -122.4392 166° South 315 362 11,300  Level Oakland Center
Thu 10:13:00 PM 37.0595 -121.8357 122° Southeast  Level FlightAware Approximate
Thu 10:13:41 PM 37.3833 -122.3889 154° Southeast 323 372 13,400  Level Oakland Center
Thu 10:14:42 PM 37.3031 -122.3369 153° Southeast 324 373 15,600 1,967 Climbing Oakland Center
Thu 10:15:43 PM 37.2336 -122.2542 136° Southeast 343 395 17,400 1,770 Climbing Oakland Center
Thu 10:16:44 PM 37.1611 -122.1706 137° Southeast 350 403 19,200 1,610 Climbing Oakland Center
Thu 10:17:46 PM 37.0883 -122.0864 137° Southeast 355 409 20,700 1,268 Climbing Oakland Center
Thu 10:18:47 PM 37.0125 -121.9997 138° Southeast 365 420 21,800 1,180 Climbing Oakland Center
Thu 10:19:48 PM 36.9353 -121.9103 137° Southeast 375 432 23,100 1,328 Climbing Oakland Center
Thu 10:20:49 PM 36.8419 -121.8031 137° Southeast 379 436 24,500 1,171 Climbing Oakland Center
Thu 10:21:51 PM 36.7778 -121.7242 135° Southeast 383 441 25,500 1,024 Climbing Oakland Center
Thu 10:22:52 PM 36.6800 -121.6156 138° Southeast 390 449 26,600 738 Climbing Oakland Center
Thu 10:23:53 PM 36.5975 -121.5239 138° Southeast 397 457 27,000 197 Climbing Oakland Center
Thu 10:24:54 PM 36.5117 -121.4272 138° Southeast 411 473 27,000  Level Oakland Center
Thu 10:25:56 PM 36.4269 -121.3317 138° Southeast 412 474 27,000  Level Oakland Center
Thu 10:26:57 PM 36.3411 -121.2364 138° Southeast 413 475 27,000  Level Oakland Center
Thu 10:27:58 PM 36.2556 -121.1394 138° Southeast 415 478 27,000  Level Oakland Center
Thu 10:29:00 PM 36.1708 -121.0450 138° Southeast 411 473 27,000  Level Oakland Center
Thu 10:30:01 PM 36.0842 -120.9503 139° Southeast 414 476 27,000  Level Oakland Center
Thu 10:31:02 PM 35.9992 -120.8558 138° Southeast 412 474 27,000  Level Oakland Center
Thu 10:32:03 PM 35.8975 -120.7431 138° Southeast 409 471 27,000  Level Oakland Center
Thu 10:33:05 PM 35.8125 -120.6492 138° Southeast 408 470 27,000  Level Oakland Center
Thu 10:34:06 PM 35.7275 -120.5550 138° Southeast 408 470 27,000  Level Oakland Center
Thu 10:35:07 PM 35.6431 -120.4619 138° Southeast 408 470 27,000  Level Oakland Center
Thu 10:36:08 PM 35.5581 -120.3681 138° Southeast 407 468 27,000  Level Oakland Center
Thu 10:37:10 PM 35.4769 -120.2792 138° Southeast 407 468 27,000  Level Oakland Center
Thu 10:38:21 PM 35.3733 -120.1672 139° Southeast 414 476 27,000  Level Los Angeles Center
Thu 10:39:23 PM 35.2783 -120.0639 138° Southeast 410 472 27,000  Level Los Angeles Center
Thu 10:40:24 PM 35.1925 -119.9711 139° Southeast 410 472 27,000  Level Los Angeles Center
Thu 10:41:26 PM 35.1067 -119.8794 139° Southeast 409 471 27,000  Level Los Angeles Center
Thu 10:42:28 PM 35.0289 -119.7772 133° Southeast 412 474 27,000  Level Los Angeles Center
Thu 10:43:29 PM 34.9517 -119.6728 132° Southeast 414 476 27,000 -1,220 Level Los Angeles Center
Thu 10:44:31 PM 34.8750 -119.5706 132° Southeast 410 472 24,500 -2,952 Descending Los Angeles Center
Thu 10:45:33 PM 34.7836 -119.4469 132° Southeast 409 471 20,900 -3,145 Descending Los Angeles Center
Thu 10:46:35 PM 34.7089 -119.3467 132° Southeast 401 461 18,000 -2,829 Descending Los Angeles Center
Thu 10:47:36 PM 34.6375 -119.2500 132° Southeast 389 448 15,100 -2,780 Descending Los Angeles Center
Thu 10:48:38 PM 34.5683 -119.1628 134° Southeast 376 433 12,300 -1,984 Descending Los Angeles Center
Thu 10:49:40 PM 34.5033 -119.0731 131° Southeast 347 399 11,000 -1,113 Descending Los Angeles Center
Thu 10:50:42 PM 34.4322 -118.9808 133° Southeast 317 365 10,000 -677 Descending Los Angeles Center
Thu 10:51:44 PM 34.3756 -118.9042 132° Southeast 302 348 9,600 -488 Descending Los Angeles Center
Thu 10:52:45 PM 34.3131 -118.8525 146° Southeast 272 313 9,000 -829 Descending Los Angeles Center
Thu 10:53:47 PM 34.2608 -118.8022 141° Southeast 248 285 7,900 -1,113 Descending Los Angeles Center
Thu 10:54:49 PM 34.2378 -118.7281 111° Southeast 236 272 6,700 -1,113 Descending Los Angeles Center
Thu 10:55:51 PM 34.2153 -118.6564 111° Southeast 233 268 5,600 -1,104 Descending Los Angeles Center
Thu 10:56:54 PM 34.2003 -118.5900 105° East 220 253 4,400 -1,065 Descending Los Angeles Center
Thu 10:57:55 PM 34.2006 -118.5283 90° East 192 221 3,400 -984 Descending Los Angeles Center
Thu 10:58:56 PM 34.1997 -118.4569 91° East 180 207 2,400 -976 Descending Los Angeles Center
Thu 10:59:58 PM 34.1992 -118.4069 91° East 158 182 1,400 -726 Descending Los Angeles Center
Thu 11:01:00 PM 34.1986 -118.3681 91° East 143 165 900 -484 Descending Los Angeles Center

Login

Don't have an account? Register now (free) for customized features, flight alerts, and more!